createdAt,value
2022-12-23T00:00:46.085Z,80.72
2022-12-23T00:03:29.696Z,80.69
2022-12-23T00:06:00.995Z,80.76
2022-12-23T00:08:29.198Z,80.73
2022-12-23T00:11:00.651Z,80.69
2022-12-23T00:13:47.461Z,80.65
2022-12-23T00:16:16.269Z,80.61
2022-12-23T00:18:46.781Z,80.58
2022-12-23T00:21:20.418Z,80.62
2022-12-23T00:23:52.489Z,80.60
2022-12-23T00:26:28.498Z,80.65
2022-12-23T00:29:00.975Z,80.66
2022-12-23T00:31:29.187Z,80.64
2022-12-23T00:33:58.569Z,80.61
2022-12-23T00:36:32.463Z,80.61
2022-12-23T00:39:19.531Z,80.59
2022-12-23T00:42:06.179Z,80.61
2022-12-23T00:44:39.036Z,80.60
2022-12-23T00:47:07.020Z,80.60
2022-12-23T00:49:44.458Z,80.62
2022-12-23T00:52:17.024Z,80.66
2022-12-23T00:54:45.033Z,80.72
2022-12-23T00:57:17.446Z,80.75
2022-12-23T00:59:45.605Z,80.73
2022-12-23T01:02:32.434Z,80.75
2022-12-23T01:05:21.216Z,80.75
2022-12-23T01:07:49.375Z,80.77
2022-12-23T01:10:19.950Z,80.77
2022-12-23T01:12:47.895Z,80.75
2022-12-23T01:15:19.696Z,80.76
2022-12-23T01:17:47.862Z,80.76
2022-12-23T01:20:15.826Z,80.72
2022-12-23T01:22:44.098Z,80.70
2022-12-23T01:25:12.312Z,80.68
2022-12-23T01:27:42.224Z,80.64
2022-12-23T01:30:14.452Z,80.63
2022-12-23T01:32:42.659Z,80.61
2022-12-23T01:35:13.598Z,80.60
2022-12-23T01:37:41.923Z,80.60
2022-12-23T01:40:13.024Z,80.61
2022-12-23T01:42:44.192Z,80.63
2022-12-23T01:45:22.258Z,80.64
2022-12-23T01:47:54.575Z,80.64
2022-12-23T01:50:34.500Z,80.65
2022-12-23T01:53:25.485Z,80.66
2022-12-23T01:56:02.178Z,80.66
2022-12-23T01:58:56.545Z,80.71
2022-12-23T02:01:45.953Z,80.73
2022-12-23T02:04:23.310Z,80.74
2022-12-23T02:07:15.088Z,80.73
2022-12-23T02:09:43.293Z,80.71
2022-12-23T02:12:33.741Z,80.68
2022-12-23T02:15:47.861Z,80.67
2022-12-23T02:18:49.894Z,80.66
2022-12-23T02:21:26.723Z,80.67
2022-12-23T02:23:58.187Z,80.66
2022-12-23T02:26:44.406Z,80.67
2022-12-23T02:29:15.332Z,80.66
2022-12-23T02:32:03.739Z,80.65
2022-12-23T02:34:49.489Z,80.65
2022-12-23T02:37:36.919Z,80.66
2022-12-23T02:40:23.229Z,80.64
2022-12-23T02:43:02.532Z,80.65
2022-12-23T02:45:38.698Z,80.63
2022-12-23T02:48:23.764Z,80.65
2022-12-23T02:50:54.797Z,80.64
2022-12-23T02:53:35.710Z,80.66
2022-12-23T02:56:09.575Z,80.69
2022-12-23T02:58:48.068Z,80.70
2022-12-23T03:01:18.139Z,80.75
2022-12-23T03:03:52.067Z,80.74
2022-12-23T03:06:34.168Z,80.71
2022-12-23T03:09:02.315Z,80.73
2022-12-23T03:11:47.487Z,80.73
2022-12-23T03:14:47.655Z,80.77
2022-12-23T03:17:27.676Z,80.82
2022-12-23T03:20:18.103Z,80.85
2022-12-23T03:22:49.970Z,80.80
2022-12-23T03:25:36.267Z,80.80
2022-12-23T03:28:32.358Z,80.80
2022-12-23T03:31:06.219Z,80.81
2022-12-23T03:33:41.039Z,80.82
2022-12-23T03:36:47.113Z,80.90
2022-12-23T03:39:25.646Z,80.88
2022-12-23T03:42:06.699Z,80.89
2022-12-23T03:45:10.815Z,80.90
2022-12-23T03:47:59.307Z,80.94
2022-12-23T03:50:32.703Z,80.94
2022-12-23T03:53:30.277Z,80.93
2022-12-23T03:56:16.758Z,80.99
2022-12-23T03:58:57.086Z,80.94
2022-12-23T04:01:27.842Z,80.97
2022-12-23T04:04:25.686Z,80.94
2022-12-23T04:07:11.011Z,80.90
2022-12-23T04:09:44.279Z,80.90
2022-12-23T04:12:16.424Z,80.91
2022-12-23T04:14:50.977Z,80.91
2022-12-23T04:17:23.835Z,80.95
2022-12-23T04:19:57.168Z,80.94
2022-12-23T04:22:25.186Z,80.94
2022-12-23T04:24:53.210Z,80.94
2022-12-23T04:27:21.366Z,80.97
2022-12-23T04:29:49.276Z,80.96
2022-12-23T04:32:17.265Z,80.99
2022-12-23T04:34:45.402Z,81.04
2022-12-23T04:37:13.607Z,81.02
2022-12-23T04:39:41.553Z,81.05
2022-12-23T04:42:09.539Z,81.03
2022-12-23T04:44:37.566Z,81.08
2022-12-23T04:47:05.576Z,81.07
2022-12-23T04:49:36.243Z,81.11
2022-12-23T04:52:06.190Z,81.16
2022-12-23T04:54:45.531Z,81.22
2022-12-23T04:57:18.922Z,81.22
2022-12-23T04:59:47.393Z,81.22
2022-12-23T05:02:15.885Z,81.32
2022-12-23T05:04:48.412Z,81.35
2022-12-23T05:07:16.607Z,81.40
2022-12-23T05:09:44.734Z,81.44
2022-12-23T05:12:16.922Z,81.48
2022-12-23T05:14:45.147Z,81.64
2022-12-23T05:17:13.096Z,81.65
2022-12-23T05:19:41.279Z,81.77
2022-12-23T05:22:09.431Z,81.93
2022-12-23T05:24:37.585Z,81.96
2022-12-23T05:27:08.840Z,81.99
2022-12-23T05:29:37.044Z,82.01
2022-12-23T05:32:08.191Z,82.12
2022-12-23T05:34:36.359Z,82.15
2022-12-23T05:37:04.375Z,82.33
2022-12-23T05:39:32.553Z,82.41
2022-12-23T05:42:00.477Z,82.48
2022-12-23T05:44:28.644Z,82.53
2022-12-23T05:46:56.694Z,82.63
2022-12-23T05:49:27.080Z,82.75
2022-12-23T05:51:55.256Z,82.80
2022-12-23T05:54:23.196Z,82.86
2022-12-23T05:56:51.423Z,82.80
2022-12-23T05:59:21.658Z,82.94
2022-12-23T06:01:49.805Z,82.85
2022-12-23T06:04:18.721Z,82.95
2022-12-23T06:06:51.069Z,82.96
2022-12-23T06:09:19.025Z,83.06
2022-12-23T06:11:51.802Z,83.07
2022-12-23T06:14:25.163Z,83.08
2022-12-23T06:16:56.869Z,83.01
2022-12-23T06:19:27.922Z,83.11
2022-12-23T06:21:56.025Z,83.09
2022-12-23T06:24:24.256Z,83.27
2022-12-23T06:26:56.988Z,83.24
2022-12-23T06:29:30.826Z,83.32
2022-12-23T06:31:58.819Z,83.25
2022-12-23T06:34:35.836Z,83.34
2022-12-23T06:37:04.139Z,83.35
2022-12-23T06:39:32.366Z,83.47
2022-12-23T06:42:00.523Z,83.54
2022-12-23T06:44:28.488Z,83.55
2022-12-23T06:46:56.645Z,83.63
2022-12-23T06:49:24.828Z,83.68
2022-12-23T06:51:53.030Z,83.71
2022-12-23T06:54:20.994Z,83.72
2022-12-23T06:56:48.952Z,83.73
2022-12-23T06:59:16.928Z,83.72
2022-12-23T07:01:45.147Z,83.78
2022-12-23T07:04:17.634Z,83.74
2022-12-23T07:06:45.852Z,83.72
2022-12-23T07:09:14.024Z,83.72
2022-12-23T07:11:42.233Z,83.72
2022-12-23T07:14:13.259Z,83.78
2022-12-23T07:16:41.523Z,83.90
2022-12-23T07:19:14.033Z,83.91
2022-12-23T07:21:42.222Z,83.85
2022-12-23T07:24:12.859Z,83.72
2022-12-23T07:26:45.743Z,83.69
2022-12-23T07:29:13.928Z,83.70
2022-12-23T07:31:45.371Z,83.64
2022-12-23T07:34:17.119Z,83.59
2022-12-23T07:36:46.043Z,83.63
2022-12-23T07:39:13.999Z,83.63
2022-12-23T07:41:42.393Z,83.58
2022-12-23T07:44:10.385Z,83.59
2022-12-23T07:46:39.321Z,83.65
2022-12-23T07:49:12.629Z,83.59
2022-12-23T07:51:40.889Z,83.53
2022-12-23T07:54:09.068Z,83.45
2022-12-23T07:56:36.981Z,83.35
2022-12-23T07:59:05.126Z,83.20
2022-12-23T08:01:36.333Z,83.04
2022-12-23T08:04:09.239Z,82.86
2022-12-23T08:06:37.831Z,82.72
2022-12-23T08:09:14.175Z,82.65
2022-12-23T08:11:42.434Z,82.62
2022-12-23T08:14:13.453Z,82.58
2022-12-23T08:16:43.945Z,82.55
2022-12-23T08:19:18.068Z,82.49
2022-12-23T08:21:46.021Z,82.44
2022-12-23T08:24:17.247Z,82.29
2022-12-23T08:26:45.531Z,82.19
2022-12-23T08:29:13.672Z,82.04
2022-12-23T08:31:41.640Z,81.90
2022-12-23T08:34:15.324Z,81.82
2022-12-23T08:36:43.369Z,81.75
2022-12-23T08:39:17.675Z,81.72
2022-12-23T08:41:52.133Z,81.57
2022-12-23T08:44:20.120Z,81.44
2022-12-23T08:46:52.795Z,81.42
2022-12-23T08:49:21.654Z,81.41
2022-12-23T08:51:54.524Z,81.39
2022-12-23T08:54:28.508Z,81.34
2022-12-23T08:56:56.799Z,81.26
2022-12-23T08:59:24.872Z,81.24
2022-12-23T09:01:53.063Z,81.15
2022-12-23T09:04:26.079Z,81.04
2022-12-23T09:06:54.134Z,80.96
2022-12-23T09:09:22.138Z,80.79
2022-12-23T09:11:50.211Z,80.57
2022-12-23T09:14:18.421Z,80.31
2022-12-23T09:16:46.622Z,79.87
2022-12-23T09:19:14.850Z,79.46
2022-12-23T09:21:42.795Z,79.09
2022-12-23T09:24:10.759Z,78.78
2022-12-23T09:26:39.094Z,78.76
2022-12-23T09:29:07.068Z,78.77
2022-12-23T09:31:39.815Z,78.69
2022-12-23T09:34:13.481Z,78.80
2022-12-23T09:36:41.688Z,78.81
2022-12-23T09:39:15.245Z,78.84
2022-12-23T09:42:12.693Z,78.74
2022-12-23T09:45:08.081Z,78.81
2022-12-23T09:47:38.281Z,78.96
2022-12-23T09:50:48.291Z,78.99
2022-12-23T09:53:25.360Z,79.01
2022-12-23T09:56:11.190Z,78.95
2022-12-23T09:58:50.189Z,78.98
2022-12-23T10:01:51.964Z,78.92
2022-12-23T10:04:23.091Z,78.78
2022-12-23T10:07:38.823Z,78.66
2022-12-23T10:10:33.508Z,78.61
2022-12-23T10:13:06.202Z,78.57
2022-12-23T10:15:47.508Z,78.52
2022-12-23T10:18:23.071Z,78.43
2022-12-23T10:21:01.804Z,78.40
2022-12-23T10:23:44.514Z,78.34
2022-12-23T10:26:25.607Z,78.31
2022-12-23T10:29:16.825Z,78.26
2022-12-23T10:31:59.549Z,78.25
2022-12-23T10:35:05.166Z,78.16
2022-12-23T10:37:37.744Z,78.00
2022-12-23T10:40:24.362Z,77.85
2022-12-23T10:43:02.462Z,77.76
2022-12-23T10:45:56.335Z,77.63
2022-12-23T10:48:56.532Z,77.50
2022-12-23T10:51:53.706Z,77.46
2022-12-23T10:54:27.195Z,77.44
2022-12-23T10:56:55.995Z,77.42
2022-12-23T10:59:30.212Z,77.34
2022-12-23T11:02:13.876Z,77.12
2022-12-23T11:04:44.681Z,77.15
2022-12-23T11:07:44.277Z,77.22
2022-12-23T11:10:19.599Z,77.18
2022-12-23T11:12:53.519Z,77.28
2022-12-23T11:15:24.276Z,77.29
2022-12-23T11:18:12.632Z,77.41
2022-12-23T11:20:43.183Z,77.40
2022-12-23T11:23:27.119Z,77.43
2022-12-23T11:26:06.018Z,77.45
2022-12-23T11:28:38.804Z,77.52
2022-12-23T11:31:14.720Z,77.57
2022-12-23T11:34:02.633Z,77.64
2022-12-23T11:36:33.325Z,77.71
2022-12-23T11:39:24.173Z,77.75
2022-12-23T11:42:01.894Z,77.83
2022-12-23T11:44:31.276Z,77.92
2022-12-23T11:47:17.731Z,77.97
2022-12-23T11:49:56.571Z,78.02
2022-12-23T11:52:31.212Z,78.13
2022-12-23T11:55:02.420Z,78.20
2022-12-23T11:57:51.842Z,78.29
2022-12-23T12:00:21.537Z,78.39
2022-12-23T12:02:54.671Z,78.58
2022-12-23T12:05:32.461Z,78.69
2022-12-23T12:08:04.807Z,78.80
2022-12-23T12:10:40.605Z,78.93
2022-12-23T12:13:29.290Z,79.03
2022-12-23T12:15:57.556Z,79.14
2022-12-23T12:18:26.939Z,79.28
2022-12-23T12:21:02.802Z,79.44
2022-12-23T12:23:40.373Z,79.57
2022-12-23T12:26:30.375Z,79.69
2022-12-23T12:29:25.807Z,79.78
2022-12-23T12:31:59.131Z,79.91
2022-12-23T12:35:12.334Z,80.02
2022-12-23T12:37:52.158Z,80.16
2022-12-23T12:40:42.662Z,80.24
2022-12-23T12:43:20.759Z,80.30
2022-12-23T12:46:18.818Z,80.43
2022-12-23T12:49:06.043Z,80.52
2022-12-23T12:51:43.051Z,80.70
2022-12-23T12:54:28.495Z,80.75
2022-12-23T12:56:59.344Z,80.83
2022-12-23T12:59:34.780Z,80.91
2022-12-23T13:02:08.875Z,80.97
2022-12-23T13:04:56.848Z,81.13
2022-12-23T13:07:30.861Z,81.23
2022-12-23T13:10:12.158Z,81.30
2022-12-23T13:12:48.959Z,81.42
2022-12-23T13:15:49.241Z,81.48
2022-12-23T13:18:45.483Z,81.65
2022-12-23T13:21:51.236Z,81.83
2022-12-23T13:24:33.080Z,81.92
2022-12-23T13:27:13.191Z,82.03
2022-12-23T13:29:58.597Z,82.11
2022-12-23T13:32:54.685Z,82.21
2022-12-23T13:36:04.946Z,82.36
2022-12-23T13:39:05.825Z,82.54
2022-12-23T13:41:42.695Z,82.56
2022-12-23T13:44:15.692Z,82.57
2022-12-23T13:47:09.091Z,82.59
2022-12-23T13:50:19.398Z,82.56
2022-12-23T13:53:15.664Z,82.47
2022-12-23T13:56:00.519Z,82.45
2022-12-23T13:58:31.456Z,82.46
2022-12-23T14:01:08.460Z,82.52
2022-12-23T14:03:40.426Z,82.50
2022-12-23T14:06:40.376Z,82.53
2022-12-23T14:09:15.660Z,82.57
2022-12-23T14:11:45.576Z,82.65
2022-12-23T14:14:24.070Z,82.69
2022-12-23T14:17:11.304Z,82.81
2022-12-23T14:19:59.006Z,82.93
2022-12-23T14:22:56.173Z,83.01
2022-12-23T14:25:37.189Z,82.99
2022-12-23T14:28:29.341Z,83.12
2022-12-23T14:30:59.609Z,83.18
2022-12-23T14:33:33.877Z,83.24
2022-12-23T14:36:21.514Z,83.30
2022-12-23T14:39:40.259Z,83.34
2022-12-23T14:42:16.677Z,83.47
2022-12-23T14:44:50.472Z,83.67
2022-12-23T14:47:32.278Z,83.77
2022-12-23T14:50:34.561Z,83.78
2022-12-23T14:53:23.149Z,83.80
2022-12-23T14:56:11.335Z,83.81
2022-12-23T14:58:48.346Z,83.88
2022-12-23T15:01:51.264Z,83.93
2022-12-23T15:04:20.949Z,83.97
2022-12-23T15:06:55.573Z,84.03
2022-12-23T15:09:42.405Z,84.03
2022-12-23T19:04:07.849Z,84.25
2022-12-23T19:06:37.521Z,84.25
2022-12-23T19:09:07.611Z,84.30
2022-12-23T19:11:35.780Z,84.30
2022-12-23T19:14:05.453Z,84.33
2022-12-23T19:16:33.642Z,84.38
2022-12-23T19:19:05.248Z,84.40
2022-12-23T19:21:35.004Z,84.46
2022-12-23T19:24:05.437Z,84.47
2022-12-23T19:26:33.642Z,84.50
2022-12-23T19:29:01.561Z,84.50
2022-12-23T19:31:31.626Z,84.51
2022-12-23T19:34:01.886Z,84.53
2022-12-23T19:36:30.131Z,84.56
2022-12-23T19:38:59.451Z,84.62
2022-12-23T19:41:29.260Z,84.64
2022-12-23T19:43:57.464Z,84.71
2022-12-23T19:46:25.668Z,84.72
2022-12-23T19:48:55.161Z,84.75
2022-12-23T19:51:23.357Z,84.83
2022-12-23T19:53:53.517Z,84.88
2022-12-23T19:56:22.658Z,84.94
2022-12-23T19:58:53.065Z,84.91
2022-12-23T20:01:25.612Z,84.99
2022-12-23T20:03:56.873Z,85.07
2022-12-23T20:06:33.346Z,85.08
2022-12-23T20:09:06.473Z,85.08
2022-12-23T20:11:55.427Z,85.11
2022-12-23T20:14:27.792Z,85.18
2022-12-23T20:17:00.138Z,85.20
2022-12-23T20:19:28.431Z,85.21
2022-12-23T20:21:56.799Z,85.17
2022-12-23T20:24:25.047Z,85.17
2022-12-23T20:26:53.080Z,85.20
2022-12-23T20:29:21.338Z,85.22
2022-12-23T20:31:52.488Z,85.19
2022-12-23T20:34:22.168Z,85.18
2022-12-23T20:36:50.213Z,85.19
2022-12-23T20:39:20.140Z,85.20
2022-12-23T20:41:48.320Z,85.20
2022-12-23T20:47:06.966Z,85.21
2022-12-23T20:49:37.858Z,85.17
2022-12-23T20:52:06.115Z,85.16
2022-12-23T20:54:35.106Z,85.13
2022-12-23T20:57:05.102Z,85.12
2022-12-23T20:59:35.027Z,85.09
2022-12-23T21:02:03.543Z,85.10
2022-12-23T21:04:34.738Z,85.08
2022-12-23T21:07:02.719Z,85.09
2022-12-23T21:09:32.695Z,85.07
2022-12-23T21:12:00.761Z,85.08
2022-12-23T21:14:30.492Z,85.06
2022-12-23T21:16:58.681Z,85.10
2022-12-23T21:19:28.197Z,85.08
2022-12-23T21:21:57.874Z,85.11
2022-12-23T21:24:26.114Z,85.13
2022-12-23T21:26:57.303Z,85.09
2022-12-23T21:29:28.182Z,85.07
2022-12-23T21:31:56.827Z,85.07
2022-12-23T21:34:25.507Z,85.03
2022-12-23T21:36:55.613Z,85.03
2022-12-23T21:39:25.251Z,85.09
2022-12-23T21:41:53.224Z,85.14
2022-12-23T21:44:21.503Z,85.15
2022-12-23T21:46:52.314Z,85.14
2022-12-23T21:49:21.637Z,85.13
2022-12-23T21:51:51.927Z,85.15
2022-12-23T21:54:20.520Z,85.11
2022-12-23T21:56:48.465Z,85.10
2022-12-23T21:59:18.494Z,85.09
2022-12-23T22:01:46.755Z,85.09
2022-12-23T22:04:18.565Z,85.08
2022-12-23T22:06:46.545Z,85.07
2022-12-23T22:09:21.183Z,85.00
2022-12-23T22:11:49.339Z,84.96
2022-12-23T22:14:19.860Z,84.96
2022-12-23T22:16:49.866Z,84.94
2022-12-23T22:19:19.603Z,84.94
2022-12-23T22:21:47.787Z,84.92
2022-12-23T22:24:17.299Z,84.89
2022-12-23T22:26:45.248Z,84.89
2022-12-23T22:29:13.485Z,84.88
2022-12-23T22:31:53.354Z,84.84
2022-12-23T22:34:22.936Z,84.79
2022-12-23T22:36:51.626Z,84.78
2022-12-23T22:39:23.067Z,84.83
2022-12-23T22:41:52.577Z,84.81
2022-12-23T22:44:23.710Z,84.82
2022-12-23T22:46:53.241Z,84.85
2022-12-23T22:49:22.894Z,84.83
2022-12-23T22:51:50.843Z,84.85
2022-12-23T22:54:19.055Z,84.82
2022-12-23T22:56:49.835Z,84.79
2022-12-23T22:59:23.188Z,84.76
2022-12-23T23:01:54.471Z,84.76
2022-12-23T23:04:24.897Z,84.73
2022-12-23T23:06:53.708Z,84.73
2022-12-23T23:09:24.593Z,84.72
2022-12-23T23:11:52.778Z,84.74
2022-12-23T23:14:20.821Z,84.76
2022-12-23T23:16:53.659Z,84.79
2022-12-23T23:19:22.338Z,84.76
2022-12-23T23:21:50.974Z,84.76
2022-12-23T23:24:19.172Z,84.73
2022-12-23T23:26:47.335Z,84.70
2022-12-23T23:29:15.289Z,84.69
2022-12-23T23:31:44.521Z,84.68
2022-12-23T23:34:16.140Z,84.67
2022-12-23T23:36:44.508Z,84.63
2022-12-23T23:39:17.304Z,84.60
2022-12-23T23:41:45.211Z,84.59
2022-12-23T23:44:13.497Z,84.58
2022-12-23T23:46:41.705Z,84.60
2022-12-23T23:49:12.220Z,84.60
2022-12-23T23:51:43.149Z,84.61
2022-12-23T23:54:11.352Z,84.68
2022-12-23T23:56:39.670Z,84.66
2022-12-23T23:59:09.703Z,84.64
